sensor_id;sensor_type;location;lat;lon;timestamp;pressure;altitude;pressure_sealevel;temperature;humidity
45369;BME280;51342;55.250;37.668;2023-04-02T00:00:16;99008.97;;;5.84;82.81
45369;BME280;51342;55.250;37.668;2023-04-02T00:02:59;99003.44;;;5.78;82.92
45369;BME280;51342;55.250;37.668;2023-04-02T00:05:38;99009.56;;;5.80;83.08
45369;BME280;51342;55.250;37.668;2023-04-02T00:08:33;99013.13;;;5.82;83.08
45369;BME280;51342;55.250;37.668;2023-04-02T00:11:26;99021.78;;;5.84;83.15
45369;BME280;51342;55.250;37.668;2023-04-02T00:14:02;99021.78;;;5.84;82.98
45369;BME280;51342;55.250;37.668;2023-04-02T00:16:34;99030.50;;;5.86;83.15
45369;BME280;51342;55.250;37.668;2023-04-02T00:19:11;99027.06;;;5.85;82.55
45369;BME280;51342;55.250;37.668;2023-04-02T00:21:45;99019.22;;;5.84;82.78
45369;BME280;51342;55.250;37.668;2023-04-02T00:24:20;99023.59;;;5.85;82.63
45369;BME280;51342;55.250;37.668;2023-04-02T00:26:52;99024.56;;;5.87;83.03
45369;BME280;51342;55.250;37.668;2023-04-02T00:29:24;99023.69;;;5.87;82.66
45369;BME280;51342;55.250;37.668;2023-04-02T00:31:57;99028.72;;;5.85;82.73
45369;BME280;51342;55.250;37.668;2023-04-02T00:34:32;99022.00;;;5.87;82.66
45369;BME280;51342;55.250;37.668;2023-04-02T00:37:06;99018.72;;;5.90;82.66
45369;BME280;51342;55.250;37.668;2023-04-02T00:39:38;99020.41;;;5.89;82.46
45369;BME280;51342;55.250;37.668;2023-04-02T00:42:12;99023.78;;;5.88;82.30
45369;BME280;51342;55.250;37.668;2023-04-02T00:44:44;99010.94;;;5.88;82.49
45369;BME280;51342;55.250;37.668;2023-04-02T00:47:21;99014.31;;;5.87;82.47
45369;BME280;51342;55.250;37.668;2023-04-02T00:50:05;99019.34;;;5.85;82.24
45369;BME280;51342;55.250;37.668;2023-04-02T00:52:38;99013.31;;;5.85;82.31
45369;BME280;51342;55.250;37.668;2023-04-02T00:55:16;99014.22;;;5.85;82.25
45369;BME280;51342;55.250;37.668;2023-04-02T00:57:50;99010.75;;;5.85;82.54
45369;BME280;51342;55.250;37.668;2023-04-02T01:00:29;99008.19;;;5.85;82.28
45369;BME280;51342;55.250;37.668;2023-04-02T01:05:50;99017.56;;;5.84;82.20
45369;BME280;51342;55.250;37.668;2023-04-02T01:25:21;99035.13;;;5.78;81.88
45369;BME280;51342;55.250;37.668;2023-04-02T01:28:05;99035.91;;;5.77;82.13
45369;BME280;51342;55.250;37.668;2023-04-02T01:30:39;99028.34;;;5.79;82.04
45369;BME280;51342;55.250;37.668;2023-04-02T01:33:12;99029.97;;;5.78;81.97
45369;BME280;51342;55.250;37.668;2023-04-02T01:35:53;99029.00;;;5.76;81.97
45369;BME280;51342;55.250;37.668;2023-04-02T01:38:38;99028.91;;;5.75;82.05
45369;BME280;51342;55.250;37.668;2023-04-02T01:41:40;99037.28;;;5.72;81.60
45369;BME280;51342;55.250;37.668;2023-04-02T01:44:51;99037.00;;;5.68;81.78
45369;BME280;51342;55.250;37.668;2023-04-02T01:47:23;99029.72;;;5.74;81.59
45369;BME280;51342;55.250;37.668;2023-04-02T01:52:52;99021.88;;;5.72;81.97
45369;BME280;51342;55.250;37.668;2023-04-02T01:55:34;99028.81;;;5.73;81.73
45369;BME280;51342;55.250;37.668;2023-04-02T01:58:06;99031.56;;;5.76;81.92
45369;BME280;51342;55.250;37.668;2023-04-02T02:00:45;99026.34;;;5.75;81.35
45369;BME280;51342;55.250;37.668;2023-04-02T02:03:18;99026.44;;;5.76;81.71
45369;BME280;51342;55.250;37.668;2023-04-02T02:05:51;99024.75;;;5.77;81.63
45369;BME280;51342;55.250;37.668;2023-04-02T02:08:40;99029.81;;;5.75;81.42
45369;BME280;51342;55.250;37.668;2023-04-02T02:11:18;99023.69;;;5.73;81.04
45369;BME280;51342;55.250;37.668;2023-04-02T02:16:27;99027.22;;;5.75;81.15
45369;BME280;51342;55.250;37.668;2023-04-02T02:19:02;99039.19;;;5.75;80.94
45369;BME280;51342;55.250;37.668;2023-04-02T02:21:49;99042.22;;;5.69;80.73
45369;BME280;51342;55.250;37.668;2023-04-02T02:24:25;99039.84;;;5.72;80.87
45369;BME280;51342;55.250;37.668;2023-04-02T02:27:41;99046.19;;;5.64;80.72
45369;BME280;51342;55.250;37.668;2023-04-02T02:30:29;99042.03;;;5.66;80.96
45369;BME280;51342;55.250;37.668;2023-04-02T02:33:15;99056.53;;;5.66;80.54
45369;BME280;51342;55.250;37.668;2023-04-02T02:35:54;99047.16;;;5.66;80.67
45369;BME280;51342;55.250;37.668;2023-04-02T02:44:05;99058.22;;;5.65;80.46
45369;BME280;51342;55.250;37.668;2023-04-02T02:47:03;99053.78;;;5.63;80.57
45369;BME280;51342;55.250;37.668;2023-04-02T02:49:41;99064.94;;;5.63;80.79
45369;BME280;51342;55.250;37.668;2023-04-02T02:52:16;99055.66;;;5.65;80.27
45369;BME280;51342;55.250;37.668;2023-04-02T02:55:02;99059.78;;;5.63;80.34
45369;BME280;51342;55.250;37.668;2023-04-02T02:57:52;99062.38;;;5.63;80.14
45369;BME280;51342;55.250;37.668;2023-04-02T03:00:26;99059.09;;;5.66;80.18
45369;BME280;51342;55.250;37.668;2023-04-02T03:03:01;99059.88;;;5.65;80.11
45369;BME280;51342;55.250;37.668;2023-04-02T03:05:36;99066.78;;;5.66;80.46
45369;BME280;51342;55.250;37.668;2023-04-02T03:08:20;99060.59;;;5.62;80.32
45369;BME280;51342;55.250;37.668;2023-04-02T03:11:20;99068.16;;;5.61;80.00
45369;BME280;51342;55.250;37.668;2023-04-02T03:14:04;99061.34;;;5.61;80.05
45369;BME280;51342;55.250;37.668;2023-04-02T03:16:46;99072.53;;;5.62;79.94
45369;BME280;51342;55.250;37.668;2023-04-02T03:19:34;99067.41;;;5.62;79.81
45369;BME280;51342;55.250;37.668;2023-04-02T03:22:36;99068.78;;;5.56;79.97
45369;BME280;51342;55.250;37.668;2023-04-02T03:25:23;99069.84;;;5.60;80.10
45369;BME280;51342;55.250;37.668;2023-04-02T03:28:02;99070.84;;;5.62;80.22
45369;BME280;51342;55.250;37.668;2023-04-02T03:30:43;99069.19;;;5.63;80.23
45369;BME280;51342;55.250;37.668;2023-04-02T03:33:26;99064.84;;;5.62;79.85
45369;BME280;51342;55.250;37.668;2023-04-02T03:36:10;99062.16;;;5.60;79.97
45369;BME280;51342;55.250;37.668;2023-04-02T03:38:50;99068.16;;;5.61;80.00
45369;BME280;51342;55.250;37.668;2023-04-02T03:44:36;99080.00;;;5.58;79.87
45369;BME280;51342;55.250;37.668;2023-04-02T03:47:35;99077.34;;;5.57;79.87
45369;BME280;51342;55.250;37.668;2023-04-02T03:53:03;99070.94;;;5.64;80.12
45369;BME280;51342;55.250;37.668;2023-04-02T03:55:38;99074.31;;;5.63;79.90
45369;BME280;51342;55.250;37.668;2023-04-02T04:00:56;99071.53;;;5.59;79.59
45369;BME280;51342;55.250;37.668;2023-04-02T04:03:39;99077.75;;;5.63;79.66
45369;BME280;51342;55.250;37.668;2023-04-02T04:06:27;99078.34;;;5.59;79.69
45369;BME280;51342;55.250;37.668;2023-04-02T04:09:10;99086.25;;;5.62;79.65
45369;BME280;51342;55.250;37.668;2023-04-02T04:11:52;99091.38;;;5.62;79.71
45369;BME280;51342;55.250;37.668;2023-04-02T04:14:30;99091.56;;;5.65;79.89
45369;BME280;51342;55.250;37.668;2023-04-02T04:19:51;99086.25;;;5.62;79.81
45369;BME280;51342;55.250;37.668;2023-04-02T04:22:27;99096.69;;;5.65;79.90
45369;BME280;51342;55.250;37.668;2023-04-02T04:25:28;99093.94;;;5.62;79.54
45369;BME280;51342;55.250;37.668;2023-04-02T04:28:21;99087.31;;;5.66;79.74
45369;BME280;51342;55.250;37.668;2023-04-02T04:31:16;99087.94;;;5.62;79.68
45369;BME280;51342;55.250;37.668;2023-04-02T04:33:54;99082.09;;;5.64;79.99
45369;BME280;51342;55.250;37.668;2023-04-02T04:36:46;99093.25;;;5.65;80.02
45369;BME280;51342;55.250;37.668;2023-04-02T04:39:32;99090.78;;;5.66;79.81
45369;BME280;51342;55.250;37.668;2023-04-02T04:42:16;99098.47;;;5.66;79.67
45369;BME280;51342;55.250;37.668;2023-04-02T04:45:27;99099.38;;;5.67;79.48
45369;BME280;51342;55.250;37.668;2023-04-02T04:48:28;99106.50;;;5.71;79.74
45369;BME280;51342;55.250;37.668;2023-04-02T04:51:03;99106.56;;;5.72;79.52
45369;BME280;51342;55.250;37.668;2023-04-02T04:53:45;99111.72;;;5.72;79.52
45369;BME280;51342;55.250;37.668;2023-04-02T04:56:22;99113.63;;;5.75;79.79
45369;BME280;51342;55.250;37.668;2023-04-02T05:01:47;99115.38;;;5.76;79.13
45369;BME280;51342;55.250;37.668;2023-04-02T05:04:36;99122.19;;;5.75;79.37
45369;BME280;51342;55.250;37.668;2023-04-02T05:07:16;99118.66;;;5.73;79.23
45369;BME280;51342;55.250;37.668;2023-04-02T05:12:50;99121.41;;;5.76;79.10
45369;BME280;51342;55.250;37.668;2023-04-02T05:19:01;99116.97;;;5.74;79.19
45369;BME280;51342;55.250;37.668;2023-04-02T05:21:50;99123.19;;;5.77;78.81
45369;BME280;51342;55.250;37.668;2023-04-02T05:24:36;99110.56;;;5.80;78.99
45369;BME280;51342;55.250;37.668;2023-04-02T05:30:16;99120.44;;;5.88;79.04
45369;BME280;51342;55.250;37.668;2023-04-02T05:35:39;99122.66;;;5.95;78.71
45369;BME280;51342;55.250;37.668;2023-04-02T05:38:22;99121.75;;;5.94;78.70
45369;BME280;51342;55.250;37.668;2023-04-02T05:41:29;99113.72;;;5.90;78.35
45369;BME280;51342;55.250;37.668;2023-04-02T05:46:57;99115.75;;;5.94;78.11
45369;BME280;51342;55.250;37.668;2023-04-02T05:52:28;99125.44;;;5.98;78.17
45369;BME280;51342;55.250;37.668;2023-04-02T05:55:25;99118.53;;;5.97;78.01
45369;BME280;51342;55.250;37.668;2023-04-02T05:58:03;99117.16;;;6.02;78.06
45369;BME280;51342;55.250;37.668;2023-04-02T06:03:23;99123.84;;;6.00;77.89
45369;BME280;51342;55.250;37.668;2023-04-02T06:06:02;99120.00;;;6.06;77.71
45369;BME280;51342;55.250;37.668;2023-04-02T06:08:46;99119.50;;;6.12;77.47
45369;BME280;51342;55.250;37.668;2023-04-02T06:11:30;99116.19;;;6.13;77.71
45369;BME280;51342;55.250;37.668;2023-04-02T06:14:04;99114.19;;;6.22;77.16
45369;BME280;51342;55.250;37.668;2023-04-02T06:16:37;99117.06;;;6.27;76.74
45369;BME280;51342;55.250;37.668;2023-04-02T06:19:30;99115.47;;;6.29;76.89
45369;BME280;51342;55.250;37.668;2023-04-02T06:25:02;99121.28;;;6.40;76.87
45369;BME280;51342;55.250;37.668;2023-04-02T06:27:42;99122.56;;;6.46;76.59
45369;BME280;51342;55.250;37.668;2023-04-02T06:30:24;99123.00;;;6.52;76.82
45369;BME280;51342;55.250;37.668;2023-04-02T06:32:58;99118.03;;;6.55;76.33
45369;BME280;51342;55.250;37.668;2023-04-02T06:35:33;99129.59;;;6.62;76.37
45369;BME280;51342;55.250;37.668;2023-04-02T06:38:16;99123.47;;;6.60;75.87
45369;BME280;51342;55.250;37.668;2023-04-02T06:40:54;99118.13;;;6.57;75.57
45369;BME280;51342;55.250;37.668;2023-04-02T06:46:49;99126.06;;;6.47;76.12
45369;BME280;51342;55.250;37.668;2023-04-02T06:49:57;99123.38;;;6.45;75.88
45369;BME280;51342;55.250;37.668;2023-04-02T06:52:45;99130.69;;;6.52;75.76
45369;BME280;51342;55.250;37.668;2023-04-02T06:55:29;99130.78;;;6.54;75.82
45369;BME280;51342;55.250;37.668;2023-04-02T06:58:02;99131.84;;;6.57;76.15
45369;BME280;51342;55.250;37.668;2023-04-02T07:00:39;99131.97;;;6.59;75.97
45369;BME280;51342;55.250;37.668;2023-04-02T07:03:23;99147.56;;;6.62;75.86
45369;BME280;51342;55.250;37.668;2023-04-02T07:05:59;99142.53;;;6.63;75.92
45369;BME280;51342;55.250;37.668;2023-04-02T07:08:32;99151.31;;;6.67;75.83
45369;BME280;51342;55.250;37.668;2023-04-02T07:11:04;99152.13;;;6.66;75.53
45369;BME280;51342;55.250;37.668;2023-04-02T07:13:35;99147.78;;;6.65;75.92
45369;BME280;51342;55.250;37.668;2023-04-02T07:16:15;99147.88;;;6.67;75.51
45369;BME280;51342;55.250;37.668;2023-04-02T07:18:47;99150.66;;;6.70;75.70
45369;BME280;51342;55.250;37.668;2023-04-02T07:21:19;99149.94;;;6.72;75.38
45369;BME280;51342;55.250;37.668;2023-04-02T07:23:51;99148.25;;;6.73;75.59
45369;BME280;51342;55.250;37.668;2023-04-02T07:26:26;99148.56;;;6.77;75.13
45369;BME280;51342;55.250;37.668;2023-04-02T07:28:57;99159.94;;;6.81;74.90
45369;BME280;51342;55.250;37.668;2023-04-02T07:31:29;99152.91;;;6.78;75.28
45369;BME280;51342;55.250;37.668;2023-04-02T07:34:01;99159.00;;;6.80;74.88
45369;BME280;51342;55.250;37.668;2023-04-02T07:36:32;99155.38;;;6.77;74.97
45369;BME280;51342;55.250;37.668;2023-04-02T07:39:04;99159.50;;;6.75;75.18
45369;BME280;51342;55.250;37.668;2023-04-02T07:41:55;99158.94;;;6.66;75.02
45369;BME280;51342;55.250;37.668;2023-04-02T07:44:27;99159.13;;;6.69;75.41
45369;BME280;51342;55.250;37.668;2023-04-02T07:46:59;99153.22;;;6.70;75.30
45369;BME280;51342;55.250;37.668;2023-04-02T07:49:30;99152.59;;;6.74;75.32
45369;BME280;51342;55.250;37.668;2023-04-02T07:52:02;99159.72;;;6.78;75.00
45369;BME280;51342;55.250;37.668;2023-04-02T07:54:33;99163.09;;;6.77;74.94
45369;BME280;51342;55.250;37.668;2023-04-02T07:57:05;99162.50;;;6.81;74.99
45369;BME280;51342;55.250;37.668;2023-04-02T07:59:37;99159.13;;;6.82;75.37
45369;BME280;51342;55.250;37.668;2023-04-02T08:02:26;99154.78;;;6.81;75.28
45369;BME280;51342;55.250;37.668;2023-04-02T08:04:57;99152.47;;;6.85;75.21
45369;BME280;51342;55.250;37.668;2023-04-02T08:07:29;99146.75;;;6.89;75.07
45369;BME280;51342;55.250;37.668;2023-04-02T08:10:01;99147.84;;;6.93;74.95
45369;BME280;51342;55.250;37.668;2023-04-02T08:12:32;99152.19;;;6.94;74.85
45369;BME280;51342;55.250;37.668;2023-04-02T08:15:04;99152.28;;;6.96;74.82
45369;BME280;51342;55.250;37.668;2023-04-02T08:17:36;99155.81;;;6.98;74.93
45369;BME280;51342;55.250;37.668;2023-04-02T08:20:16;99153.97;;;6.95;74.99
45369;BME280;51342;55.250;37.668;2023-04-02T08:22:49;99142.88;;;6.96;74.96
45369;BME280;51342;55.250;37.668;2023-04-02T08:25:20;99159.41;;;7.00;74.61
45369;BME280;51342;55.250;37.668;2023-04-02T08:27:52;99157.00;;;7.03;74.59
45369;BME280;51342;55.250;37.668;2023-04-02T08:30:23;99151.84;;;7.03;74.45
45369;BME280;51342;55.250;37.668;2023-04-02T08:32:54;99151.97;;;7.04;74.77
45369;BME280;51342;55.250;37.668;2023-04-02T08:35:26;99161.63;;;7.08;74.34
45369;BME280;51342;55.250;37.668;2023-04-02T08:37:58;99161.31;;;7.17;74.62
45369;BME280;51342;55.250;37.668;2023-04-02T08:40:38;99152.91;;;7.20;74.13
45369;BME280;51342;55.250;37.668;2023-04-02T08:48:53;99155.97;;;7.42;74.06
45369;BME280;51342;55.250;37.668;2023-04-02T08:51:28;99163.19;;;7.48;74.11
45369;BME280;51342;55.250;37.668;2023-04-02T08:54:04;99160.91;;;7.52;73.86
45369;BME280;51342;55.250;37.668;2023-04-02T08:56:42;99155.06;;;7.55;73.70
45369;BME280;51342;55.250;37.668;2023-04-02T08:59:26;99156.19;;;7.60;73.53
45369;BME280;51342;55.250;37.668;2023-04-02T09:04:41;99165.00;;;7.63;73.54
45369;BME280;51342;55.250;37.668;2023-04-02T09:07:15;99157.19;;;7.62;73.60
45369;BME280;51342;55.250;37.668;2023-04-02T09:09:48;99163.91;;;7.60;73.27
45369;BME280;51342;55.250;37.668;2023-04-02T09:12:25;99165.72;;;7.61;73.58
45369;BME280;51342;55.250;37.668;2023-04-02T09:17:41;99164.31;;;7.66;73.48
45369;BME280;51342;55.250;37.668;2023-04-02T09:20:16;99173.38;;;7.74;73.58
45369;BME280;51342;55.250;37.668;2023-04-02T09:22:50;99154.91;;;7.81;73.53
45369;BME280;51342;55.250;37.668;2023-04-02T09:25:25;99164.88;;;7.90;73.48
45369;BME280;51342;55.250;37.668;2023-04-02T09:28:00;99159.38;;;7.98;73.28
45369;BME280;51342;55.250;37.668;2023-04-02T09:33:14;99156.06;;;8.16;73.30
45369;BME280;51342;55.250;37.668;2023-04-02T09:38:25;99150.84;;;8.29;72.71
45369;BME280;51342;55.250;37.668;2023-04-02T09:41:03;99149.53;;;8.36;72.79
45369;BME280;51342;55.250;37.668;2023-04-02T09:43:38;99150.78;;;8.42;72.67
45369;BME280;51342;55.250;37.668;2023-04-02T09:51:27;99151.66;;;8.58;72.06
45369;BME280;51342;55.250;37.668;2023-04-02T09:56:35;99146.00;;;8.80;71.68
45369;BME280;51342;55.250;37.668;2023-04-02T09:59:16;99138.34;;;8.81;71.14
45369;BME280;51342;55.250;37.668;2023-04-02T10:01:59;99135.84;;;8.83;71.06
45369;BME280;51342;55.250;37.668;2023-04-02T10:04:35;99143.00;;;8.88;71.24
45369;BME280;51342;55.250;37.668;2023-04-02T10:07:41;99140.63;;;8.91;70.83
45369;BME280;51342;55.250;37.668;2023-04-02T10:10:36;99134.81;;;8.95;70.84
45369;BME280;51342;55.250;37.668;2023-04-02T10:16:00;99148.41;;;9.08;69.91
45369;BME280;51342;55.250;37.668;2023-04-02T10:21:24;99152.84;;;9.26;69.56
45369;BME280;51342;55.250;37.668;2023-04-02T10:23:57;99153.97;;;9.32;68.92
45369;BME280;51342;55.250;37.668;2023-04-02T10:32:23;99149.69;;;9.32;68.85
45369;BME280;51342;55.250;37.668;2023-04-02T10:35:00;99158.31;;;9.16;69.41
45369;BME280;51342;55.250;37.668;2023-04-02T10:38:00;99152.78;;;9.25;69.05
45369;BME280;51342;55.250;37.668;2023-04-02T10:52:19;99144.69;;;9.51;67.75
45369;BME280;51342;55.250;37.668;2023-04-02T10:54:52;99143.22;;;9.56;67.53
45369;BME280;51342;55.250;37.668;2023-04-02T10:57:33;99144.38;;;9.62;67.51
45369;BME280;51342;55.250;37.668;2023-04-02T11:03:04;99132.91;;;9.73;66.94
45369;BME280;51342;55.250;37.668;2023-04-02T11:05:45;99134.84;;;9.77;66.36
45369;BME280;51342;55.250;37.668;2023-04-02T11:08:21;99134.91;;;9.78;66.53
45369;BME280;51342;55.250;37.668;2023-04-02T11:16:21;99141.56;;;9.91;66.53
45369;BME280;51342;55.250;37.668;2023-04-02T11:19:24;99131.41;;;9.94;66.39
45369;BME280;51342;55.250;37.668;2023-04-02T11:22:03;99127.81;;;10.08;65.42
45369;BME280;51342;55.250;37.668;2023-04-02T11:27:17;99141.31;;;10.21;64.76
45369;BME280;51342;55.250;37.668;2023-04-02T11:32:51;99141.75;;;10.28;64.44
45369;BME280;51342;55.250;37.668;2023-04-02T11:38:00;99128.19;;;10.32;63.96
45369;BME280;51342;55.250;37.668;2023-04-02T11:40:48;99125.50;;;10.31;64.05
45369;BME280;51342;55.250;37.668;2023-04-02T11:43:47;99128.19;;;10.32;63.89
45369;BME280;51342;55.250;37.668;2023-04-02T11:48:50;99111.50;;;10.44;63.50
45369;BME280;51342;55.250;37.668;2023-04-02T11:53:53;99115.00;;;10.64;62.79
45369;BME280;51342;55.250;37.668;2023-04-02T12:02:04;99126.47;;;10.69;62.91
45369;BME280;51342;55.250;37.668;2023-04-02T12:08:09;99121.22;;;10.67;61.77
45369;BME280;51342;55.250;37.668;2023-04-02T12:11:00;99124.00;;;10.72;62.53
45369;BME280;51342;55.250;37.668;2023-04-02T12:16:11;99125.94;;;10.76;61.65
45369;BME280;51342;55.250;37.668;2023-04-02T12:18:50;99124.16;;;10.75;61.77
45369;BME280;51342;55.250;37.668;2023-04-02T12:21:28;99128.69;;;10.79;61.63
45369;BME280;51342;55.250;37.668;2023-04-02T12:23:59;99122.81;;;10.83;61.36
45369;BME280;51342;55.250;37.668;2023-04-02T12:26:35;99134.81;;;10.81;60.95
45369;BME280;51342;55.250;37.668;2023-04-02T12:29:27;99125.00;;;10.74;61.20
45369;BME280;51342;55.250;37.668;2023-04-02T12:31:59;99122.75;;;10.81;61.67
45369;BME280;51342;55.250;37.668;2023-04-02T12:34:30;99125.41;;;10.83;61.56
45369;BME280;51342;55.250;37.668;2023-04-02T12:37:03;99130.66;;;10.84;61.71
45369;BME280;51342;55.250;37.668;2023-04-02T12:39:35;99125.63;;;10.87;61.29
45369;BME280;51342;55.250;37.668;2023-04-02T12:42:25;99134.97;;;10.84;61.28
45369;BME280;51342;55.250;37.668;2023-04-02T12:44:57;99128.16;;;10.86;60.70
45369;BME280;51342;55.250;37.668;2023-04-02T12:47:28;99129.19;;;10.90;60.85
45369;BME280;51342;55.250;37.668;2023-04-02T12:50:00;99124.00;;;10.90;60.56
45369;BME280;51342;55.250;37.668;2023-04-02T12:52:32;99123.09;;;10.89;60.94
45369;BME280;51342;55.250;37.668;2023-04-02T12:55:03;99128.28;;;10.89;60.65
45369;BME280;51342;55.250;37.668;2023-04-02T12:57:37;99127.31;;;10.87;60.48
45369;BME280;51342;55.250;37.668;2023-04-02T13:05:37;99122.69;;;10.80;60.98
45369;BME280;51342;55.250;37.668;2023-04-02T13:08:16;99125.06;;;10.57;62.01
45369;BME280;51342;55.250;37.668;2023-04-02T13:10:59;99124.41;;;10.61;60.98
45369;BME280;51342;55.250;37.668;2023-04-02T13:18:41;99128.16;;;10.68;60.74
45369;BME280;51342;55.250;37.668;2023-04-02T13:23:44;99129.06;;;10.69;60.54
45369;BME280;51342;55.250;37.668;2023-04-02T13:26:27;99130.75;;;10.68;60.74
45369;BME280;51342;55.250;37.668;2023-04-02T13:29:02;99131.72;;;10.70;61.12
45369;BME280;51342;55.250;37.668;2023-04-02T13:31:33;99127.41;;;10.71;60.56
45369;BME280;51342;55.250;37.668;2023-04-02T13:34:05;99119.59;;;10.69;60.67
45369;BME280;51342;55.250;37.668;2023-04-02T13:36:36;99130.09;;;10.72;60.85
45369;BME280;51342;55.250;37.668;2023-04-02T13:39:08;99121.44;;;10.72;60.76
45369;BME280;51342;55.250;37.668;2023-04-02T13:41:45;99124.94;;;10.72;60.69
45369;BME280;51342;55.250;37.668;2023-04-02T13:44:28;99125.53;;;10.67;60.69
45369;BME280;51342;55.250;37.668;2023-04-02T13:47:00;99134.22;;;10.69;60.99
45369;BME280;51342;55.250;37.668;2023-04-02T13:49:32;99129.06;;;10.69;60.71
45369;BME280;51342;55.250;37.668;2023-04-02T13:52:03;99133.47;;;10.71;60.89
45369;BME280;51342;55.250;37.668;2023-04-02T13:57:21;99123.66;;;10.64;60.93
45369;BME280;51342;55.250;37.668;2023-04-02T13:59:53;99133.34;;;10.68;61.14
45369;BME280;51342;55.250;37.668;2023-04-02T14:02:24;99130.69;;;10.67;60.58
45369;BME280;51342;55.250;37.668;2023-04-02T14:10:36;99130.53;;;10.64;60.52
45369;BME280;51342;55.250;37.668;2023-04-02T14:16:14;99141.63;;;10.61;60.67
45369;BME280;51342;55.250;37.668;2023-04-02T14:24:23;99137.94;;;10.56;60.50
45369;BME280;51342;55.250;37.668;2023-04-02T14:27:08;99136.06;;;10.53;59.58
45369;BME280;51342;55.250;37.668;2023-04-02T14:33:15;99132.38;;;10.48;59.54
45369;BME280;51342;55.250;37.668;2023-04-02T14:35:34;99141.59;;;10.43;59.63
45369;BME280;51342;55.250;37.668;2023-04-02T14:41:04;99138.06;;;10.41;59.37
45369;BME280;51342;55.250;37.668;2023-04-02T14:46:14;99141.47;;;10.40;59.54
45369;BME280;51342;55.250;37.668;2023-04-02T14:51:59;99127.19;;;10.30;59.37
45369;BME280;51342;55.250;37.668;2023-04-02T14:54:45;99146.34;;;10.34;59.59
45369;BME280;51342;55.250;37.668;2023-04-02T14:57:23;99136.66;;;10.30;59.90
45369;BME280;51342;55.250;37.668;2023-04-02T15:02:56;99141.75;;;10.28;59.66
45369;BME280;51342;55.250;37.668;2023-04-02T15:08:23;99145.88;;;10.25;60.25
45369;BME280;51342;55.250;37.668;2023-04-02T15:13:56;99154.63;;;10.27;60.08
45369;BME280;51342;55.250;37.668;2023-04-02T15:16:30;99150.41;;;10.29;60.36
45369;BME280;51342;55.250;37.668;2023-04-02T15:19:09;99152.03;;;10.27;60.21
45369;BME280;51342;55.250;37.668;2023-04-02T15:30:13;99167.03;;;10.18;60.31
45369;BME280;51342;55.250;37.668;2023-04-02T15:32:49;99162.69;;;10.17;60.26
45369;BME280;51342;55.250;37.668;2023-04-02T15:43:28;99164.50;;;10.01;61.34
45369;BME280;51342;55.250;37.668;2023-04-02T15:46:36;99170.00;;;9.91;61.28
45369;BME280;51342;55.250;37.668;2023-04-02T15:52:20;99179.31;;;9.88;61.80
45369;BME280;51342;55.250;37.668;2023-04-02T16:00:50;99186.00;;;9.68;61.59
45369;BME280;51342;55.250;37.668;2023-04-02T16:09:27;99192.56;;;9.61;61.75
45369;BME280;51342;55.250;37.668;2023-04-02T16:12:12;99196.75;;;9.59;61.59
45369;BME280;51342;55.250;37.668;2023-04-02T16:14:46;99195.84;;;9.59;61.78
45369;BME280;51342;55.250;37.668;2023-04-02T16:17:25;99198.28;;;9.55;61.86
45369;BME280;51342;55.250;37.668;2023-04-02T16:22:47;99197.97;;;9.49;61.65
45369;BME280;51342;55.250;37.668;2023-04-02T16:25:23;99202.88;;;9.45;61.86
45369;BME280;51342;55.250;37.668;2023-04-02T16:50:20;99192.59;;;9.14;62.36
45369;BME280;51342;55.250;37.668;2023-04-02T16:59:50;99214.50;;;9.06;62.99
45369;BME280;51342;55.250;37.668;2023-04-02T17:05:33;99220.66;;;8.93;62.82
45369;BME280;51342;55.250;37.668;2023-04-02T17:08:24;99230.03;;;8.91;62.96
45369;BME280;51342;55.250;37.668;2023-04-02T17:16:17;99233.16;;;8.85;63.31
45369;BME280;51342;55.250;37.668;2023-04-02T17:19:08;99229.56;;;8.83;63.51
45369;BME280;51342;55.250;37.668;2023-04-02T17:21:44;99231.34;;;8.84;63.32
45369;BME280;51342;55.250;37.668;2023-04-02T17:24:25;99244.91;;;8.80;63.23
45369;BME280;51342;55.250;37.668;2023-04-02T17:29:40;99240.44;;;8.77;63.53
45369;BME280;51342;55.250;37.668;2023-04-02T17:32:23;99239.38;;;8.74;63.55
45369;BME280;51342;55.250;37.668;2023-04-02T17:34:56;99247.28;;;8.77;63.59
45369;BME280;51342;55.250;37.668;2023-04-02T17:37:42;99252.91;;;8.70;63.29
45369;BME280;51342;55.250;37.668;2023-04-02T17:43:12;99251.03;;;8.67;63.92
45369;BME280;51342;55.250;37.668;2023-04-02T17:45:51;99258.06;;;8.70;63.38
45369;BME280;51342;55.250;37.668;2023-04-02T18:05:35;99264.75;;;8.52;63.80
45369;BME280;51342;55.250;37.668;2023-04-02T18:16:17;99266.31;;;8.49;63.74
45369;BME280;51342;55.250;37.668;2023-04-02T18:25:13;99279.66;;;8.42;63.85
45369;BME280;51342;55.250;37.668;2023-04-02T18:28:18;99275.13;;;8.38;63.52
45369;BME280;51342;55.250;37.668;2023-04-02T18:38:59;99270.69;;;8.36;64.00
45369;BME280;51342;55.250;37.668;2023-04-02T18:50:30;99275.25;;;8.27;64.30
45369;BME280;51342;55.250;37.668;2023-04-02T18:53:18;99278.47;;;8.22;63.98
45369;BME280;51342;55.250;37.668;2023-04-02T18:55:57;99290.63;;;8.25;64.12
45369;BME280;51342;55.250;37.668;2023-04-02T18:58:41;99281.81;;;8.21;64.16
45369;BME280;51342;55.250;37.668;2023-04-02T19:01:21;99286.09;;;8.21;64.66
45369;BME280;51342;55.250;37.668;2023-04-02T19:03:55;99287.34;;;8.00;64.87
45369;BME280;51342;55.250;37.668;2023-04-02T19:06:34;99279.41;;;8.10;64.73
45369;BME280;51342;55.250;37.668;2023-04-02T19:09:17;99282.09;;;8.11;64.49
45369;BME280;51342;55.250;37.668;2023-04-02T19:11:48;99285.63;;;8.13;64.70
45369;BME280;51342;55.250;37.668;2023-04-02T19:14:23;99280.41;;;8.12;64.80
45369;BME280;51342;55.250;37.668;2023-04-02T19:17:02;99283.56;;;8.08;64.59
45369;BME280;51342;55.250;37.668;2023-04-02T19:20:07;99283.38;;;8.05;64.57
45369;BME280;51342;55.250;37.668;2023-04-02T19:25:50;99282.31;;;8.01;64.65
45369;BME280;51342;55.250;37.668;2023-04-02T19:28:32;99289.25;;;8.02;64.80
45369;BME280;51342;55.250;37.668;2023-04-02T19:31:34;99281.44;;;8.01;64.64